createdAt,value
2023-04-05T00:00:08.153Z,59.70
2023-04-05T00:02:37.312Z,59.30
2023-04-05T00:05:05.522Z,59.30
2023-04-05T00:07:34.755Z,59.50
2023-04-05T00:10:02.092Z,59.80
2023-04-05T00:12:29.890Z,59.80
2023-04-05T00:14:58.016Z,59.70
2023-04-05T00:17:26.492Z,59.90
2023-04-05T00:19:58.693Z,59.70
2023-04-05T00:22:29.721Z,59.70
2023-04-05T00:24:57.471Z,59.80
2023-04-05T00:27:25.776Z,59.80
2023-04-05T00:29:53.434Z,59.60
2023-04-05T00:32:21.304Z,59.50
2023-04-05T00:34:50.318Z,59.30
2023-04-05T00:37:21.720Z,59.50
2023-04-05T00:39:49.540Z,59.60
2023-04-05T00:42:16.953Z,59.80
2023-04-05T00:44:45.172Z,59.70
2023-04-05T00:47:13.142Z,60.70
2023-04-05T00:49:41.399Z,61.50
2023-04-05T00:52:09.203Z,61.90
2023-04-05T00:54:44.294Z,62.80
2023-04-05T00:57:12.645Z,61.50
2023-04-05T00:59:40.813Z,62.30
2023-04-05T01:02:17.375Z,62.50
2023-04-05T01:04:50.489Z,63.20
2023-04-05T01:07:28.076Z,63.00
2023-04-05T01:10:05.073Z,63.10
2023-04-05T01:12:34.295Z,59.90
2023-04-05T01:15:18.721Z,58.60
2023-04-05T01:17:47.374Z,57.60
2023-04-05T01:20:15.483Z,57.30
2023-04-05T01:23:06.868Z,57.60
2023-04-05T01:25:54.088Z,57.70
2023-04-05T01:28:48.017Z,57.40
2023-04-05T01:31:26.143Z,57.70
2023-04-05T01:34:07.206Z,58.10
2023-04-05T01:36:41.560Z,58.10
2023-04-05T01:39:12.121Z,57.90
2023-04-05T01:41:42.285Z,57.50
2023-04-05T01:44:10.242Z,57.30
2023-04-05T01:46:38.007Z,57.40
2023-04-05T01:49:05.817Z,57.80
2023-04-05T01:51:33.844Z,57.90
2023-04-05T01:54:01.277Z,57.40
2023-04-05T01:56:29.259Z,57.10
2023-04-05T01:58:57.499Z,56.40
2023-04-05T02:01:25.956Z,56.10
2023-04-05T02:03:53.942Z,56.10
2023-04-05T02:06:24.428Z,56.00
2023-04-05T02:08:51.900Z,56.00
2023-04-05T02:11:19.908Z,55.90
2023-04-05T02:13:47.725Z,55.80
2023-04-05T02:16:16.156Z,55.40
2023-04-05T02:18:43.875Z,55.10
2023-04-05T02:21:12.208Z,55.00
2023-04-05T02:23:40.738Z,54.90
2023-04-05T02:26:08.948Z,54.90
2023-04-05T02:28:36.778Z,54.80
2023-04-05T02:31:10.409Z,55.00
2023-04-05T02:33:38.642Z,54.90
2023-04-05T02:36:09.708Z,55.00
2023-04-05T02:38:37.818Z,55.20
2023-04-05T02:41:12.022Z,55.20
2023-04-05T02:43:40.875Z,55.30
2023-04-05T02:46:08.441Z,55.10
2023-04-05T02:48:41.594Z,55.00
2023-04-05T02:51:09.375Z,55.00
2023-04-05T02:53:50.406Z,54.40
2023-04-05T02:56:18.506Z,54.50
2023-04-05T02:58:48.684Z,54.70
2023-04-05T03:01:18.222Z,54.60
2023-04-05T03:03:46.247Z,54.60
2023-04-05T03:06:15.670Z,55.10
2023-04-05T03:08:45.542Z,55.60
2023-04-05T03:11:14.981Z,55.60
2023-04-05T03:13:44.954Z,55.50
2023-04-05T03:16:14.849Z,56.10
2023-04-05T03:19:05.454Z,56.60
2023-04-05T03:21:34.805Z,56.80
2023-04-05T03:24:18.045Z,56.70
2023-04-05T03:26:49.805Z,56.50
2023-04-05T03:29:18.866Z,56.50
2023-04-05T03:31:47.966Z,56.70
2023-04-05T03:34:17.457Z,56.60
2023-04-05T03:36:47.931Z,56.90
2023-04-05T03:39:17.212Z,56.80
2023-04-05T03:41:45.396Z,56.20
2023-04-05T03:44:13.221Z,56.50
2023-04-05T03:46:40.982Z,56.50
2023-04-05T03:49:08.440Z,56.30
2023-04-05T03:51:36.864Z,56.30
2023-04-05T03:54:04.893Z,56.90
2023-04-05T03:56:34.026Z,56.10
2023-04-05T03:59:03.818Z,56.50
2023-04-05T04:01:32.262Z,56.70
2023-04-05T04:04:01.196Z,56.40
2023-04-05T04:06:31.150Z,56.40
2023-04-05T04:08:59.247Z,56.30
2023-04-05T04:11:26.527Z,56.40
2023-04-05T04:13:54.576Z,56.60
2023-04-05T04:16:24.859Z,56.50
2023-04-05T04:19:08.520Z,56.30
2023-04-05T04:21:39.908Z,57.30
2023-04-05T04:24:16.814Z,56.20
2023-04-05T04:26:59.807Z,56.30
2023-04-05T04:29:54.227Z,56.60
2023-04-05T04:32:25.806Z,56.00
2023-04-05T04:34:59.062Z,55.80
2023-04-05T04:37:30.999Z,56.30
2023-04-05T04:40:02.043Z,56.10
2023-04-05T04:42:52.693Z,55.80
2023-04-05T04:45:39.008Z,56.10
2023-04-05T04:48:13.019Z,55.80
2023-04-05T04:50:44.822Z,55.70
2023-04-05T04:53:13.928Z,55.70
2023-04-05T04:55:43.128Z,56.20
2023-04-05T04:58:12.440Z,56.20
2023-04-05T05:00:45.357Z,56.40
2023-04-05T05:03:13.880Z,56.60
2023-04-05T05:05:49.816Z,56.50
2023-04-05T05:08:27.052Z,56.90
2023-04-05T05:10:54.767Z,56.80
2023-04-05T05:13:22.898Z,57.80
2023-04-05T05:16:07.465Z,57.00
2023-04-05T05:18:35.406Z,56.90
2023-04-05T05:21:02.839Z,56.30
2023-04-05T05:23:30.445Z,56.10
2023-04-05T05:25:59.666Z,56.30
2023-04-05T05:28:28.774Z,56.90
2023-04-05T05:30:56.618Z,56.30
2023-04-05T05:33:26.027Z,56.40
2023-04-05T05:35:53.843Z,56.00
2023-04-05T05:38:22.692Z,56.30
2023-04-05T05:40:56.309Z,56.40
2023-04-05T05:43:24.418Z,56.20
2023-04-05T05:46:01.626Z,56.00
2023-04-05T05:48:29.186Z,55.90
2023-04-05T05:50:57.526Z,56.00
2023-04-05T05:53:25.096Z,56.10
2023-04-05T05:55:52.922Z,55.90
2023-04-05T05:58:21.609Z,56.60
2023-04-05T06:00:51.216Z,56.80
2023-04-05T06:03:22.070Z,56.30
2023-04-05T06:05:57.303Z,56.50
2023-04-05T06:08:27.891Z,56.20
2023-04-05T06:10:55.726Z,55.70
2023-04-05T06:13:23.409Z,55.70
2023-04-05T06:15:51.142Z,55.50
2023-04-05T06:18:20.920Z,55.80
2023-04-05T06:20:48.799Z,56.10
2023-04-05T06:23:16.824Z,56.00
2023-04-05T06:25:44.571Z,55.90
2023-04-05T06:28:12.554Z,56.70
2023-04-05T06:30:45.409Z,56.30
2023-04-05T06:33:13.586Z,55.60
2023-04-05T06:35:41.665Z,55.00
2023-04-05T06:38:10.795Z,55.20
2023-04-05T06:40:39.378Z,54.80
2023-04-05T06:43:07.434Z,55.10
2023-04-05T06:45:35.363Z,55.70
2023-04-05T06:48:04.921Z,56.10
2023-04-05T06:50:32.718Z,56.00
2023-04-05T06:53:00.718Z,55.80
2023-04-05T06:55:30.381Z,55.80
2023-04-05T06:57:58.180Z,56.50
2023-04-05T07:00:25.838Z,56.70
2023-04-05T07:02:54.401Z,55.90
2023-04-05T07:05:22.313Z,56.00
2023-04-05T07:07:50.378Z,55.60
2023-04-05T07:10:18.322Z,55.00
2023-04-05T07:15:35.458Z,55.30
2023-04-05T07:18:03.263Z,55.70
2023-04-05T07:20:31.523Z,55.70
2023-04-05T07:22:59.359Z,55.50
2023-04-05T07:25:28.078Z,56.10
2023-04-05T07:27:57.389Z,56.20
2023-04-05T07:30:27.292Z,56.60
2023-04-05T07:32:55.674Z,56.40
2023-04-05T07:35:23.148Z,55.50
2023-04-05T07:37:53.007Z,56.00
2023-04-05T07:40:21.327Z,56.30
2023-04-05T07:42:49.470Z,55.30
2023-04-05T07:45:17.693Z,55.00
2023-04-05T07:47:45.500Z,54.90
2023-04-05T07:50:15.786Z,53.80
2023-04-05T07:52:43.741Z,54.10
2023-04-05T07:55:11.291Z,54.20
2023-04-05T07:57:40.077Z,54.90
2023-04-05T08:00:12.074Z,54.90
2023-04-05T08:02:42.406Z,55.00
2023-04-05T08:05:10.057Z,54.60
2023-04-05T08:07:37.767Z,54.00
2023-04-05T08:10:06.871Z,54.10
2023-04-05T08:12:39.024Z,54.20
2023-04-05T08:15:09.202Z,55.20
2023-04-05T08:17:37.221Z,54.50
2023-04-05T08:20:05.724Z,53.80
2023-04-05T08:22:33.349Z,53.50
2023-04-05T08:25:00.867Z,53.60
2023-04-05T08:27:28.685Z,53.80
2023-04-05T08:29:58.772Z,53.80
2023-04-05T08:32:29.706Z,54.10
2023-04-05T08:34:58.468Z,54.30
2023-04-05T08:37:26.469Z,53.10
2023-04-05T08:39:54.517Z,52.70
2023-04-05T08:42:35.446Z,53.20
2023-04-05T08:45:05.613Z,54.40
2023-04-05T08:47:37.123Z,54.00
2023-04-05T08:50:05.655Z,53.70
2023-04-05T08:52:35.093Z,54.10
2023-04-05T08:55:03.619Z,55.20
2023-04-05T08:57:32.781Z,55.70
2023-04-05T09:00:03.227Z,54.40
2023-04-05T09:02:31.713Z,54.30
2023-04-05T09:05:00.018Z,53.70
2023-04-05T09:07:30.004Z,54.40
2023-04-05T09:10:00.913Z,55.20
2023-04-05T09:12:28.686Z,54.40
2023-04-05T09:14:56.699Z,54.10
2023-04-05T09:17:24.954Z,53.70
2023-04-05T09:19:53.291Z,54.10
2023-04-05T09:22:23.396Z,53.90
2023-04-05T09:24:51.499Z,54.10
2023-04-05T09:27:21.680Z,53.30
2023-04-05T09:29:51.423Z,52.30
2023-04-05T09:32:20.886Z,52.30
2023-04-05T09:34:53.804Z,52.70
2023-04-05T09:37:26.213Z,51.60
2023-04-05T09:39:57.955Z,51.90
2023-04-05T09:42:26.375Z,52.20
2023-04-05T09:45:01.929Z,52.40
2023-04-05T09:47:34.923Z,53.00
2023-04-05T09:50:20.952Z,53.10
2023-04-05T09:52:49.671Z,53.50
2023-04-05T09:55:28.768Z,53.10
2023-04-05T09:57:56.742Z,52.80
2023-04-05T10:00:24.839Z,52.70
2023-04-05T10:03:00.308Z,51.90
2023-04-05T10:05:29.147Z,52.40
2023-04-05T10:07:57.140Z,51.30
2023-04-05T10:10:25.789Z,52.60
2023-04-05T10:12:54.763Z,52.90
2023-04-05T10:15:29.017Z,53.60
2023-04-05T10:18:10.550Z,53.50
2023-04-05T10:20:44.458Z,53.30
2023-04-05T10:23:15.801Z,54.20
2023-04-05T10:25:52.098Z,55.00
2023-04-05T10:28:40.383Z,54.20
2023-04-05T10:31:36.476Z,54.40
2023-04-05T10:34:00.882Z,54.80
2023-04-05T10:36:51.515Z,54.10
2023-04-05T10:39:41.490Z,54.80
2023-04-05T10:42:28.720Z,53.80
2023-04-05T10:45:04.706Z,53.20
2023-04-05T10:47:35.122Z,53.00
2023-04-05T10:50:06.596Z,53.30
2023-04-05T10:52:35.436Z,52.90
2023-04-05T10:55:05.638Z,52.50
2023-04-05T10:57:37.681Z,54.20
2023-04-05T11:00:07.445Z,53.20
2023-04-05T11:02:36.937Z,52.60
2023-04-05T11:05:05.866Z,52.10
2023-04-05T11:07:49.327Z,52.30
2023-04-05T11:10:18.877Z,51.40
2023-04-05T11:12:56.584Z,52.50
2023-04-05T11:15:30.541Z,53.90
2023-04-05T11:18:10.954Z,52.60
2023-04-05T11:20:52.178Z,51.50
2023-04-05T11:23:21.904Z,53.10
2023-04-05T11:25:55.732Z,52.70
2023-04-05T11:28:33.257Z,52.20
2023-04-05T11:31:13.342Z,52.10
2023-04-05T11:33:57.352Z,52.80
2023-04-05T11:36:41.320Z,52.20
2023-04-05T11:39:23.951Z,52.40
2023-04-05T11:42:01.709Z,52.00
2023-04-05T11:44:47.039Z,50.90
2023-04-05T11:47:22.087Z,50.40
2023-04-05T11:49:51.414Z,50.50
2023-04-05T11:52:21.531Z,50.70
2023-04-05T11:54:50.303Z,51.20
2023-04-05T11:57:23.234Z,50.70
2023-04-05T11:59:52.251Z,51.00
2023-04-05T12:02:21.191Z,51.10
2023-04-05T12:04:58.492Z,51.70
2023-04-05T12:07:30.031Z,52.50
2023-04-05T12:10:04.736Z,53.40
2023-04-05T12:12:42.152Z,53.50
2023-04-05T12:15:14.346Z,52.60
2023-04-05T12:17:51.518Z,52.80
2023-04-05T12:20:27.290Z,51.80
2023-04-05T12:22:57.453Z,51.70
2023-04-05T12:25:25.899Z,52.20
2023-04-05T12:27:53.603Z,51.50
2023-04-05T12:30:23.765Z,49.50
2023-04-05T12:32:53.440Z,48.80
2023-04-05T12:35:29.130Z,49.10
2023-04-05T12:38:02.281Z,49.20
2023-04-05T12:40:33.276Z,50.20
2023-04-05T12:43:05.577Z,49.40
2023-04-05T12:45:36.519Z,48.30
2023-04-05T12:48:17.202Z,47.50
2023-04-05T12:50:52.077Z,46.80
2023-04-05T12:53:25.615Z,47.40
2023-04-05T12:55:58.682Z,48.00
2023-04-05T12:58:35.799Z,48.10
2023-04-05T13:01:04.586Z,48.50
2023-04-05T13:03:33.213Z,47.00
2023-04-05T13:06:00.891Z,47.40
2023-04-05T13:08:28.685Z,47.30
2023-04-05T13:10:57.997Z,48.20
2023-04-05T13:13:27.283Z,48.50
2023-04-05T13:15:55.888Z,48.80
2023-04-05T13:18:24.566Z,47.60
2023-04-05T13:20:52.517Z,46.60
2023-04-05T13:23:20.042Z,46.80
2023-04-05T13:25:47.835Z,47.10
2023-04-05T13:28:15.880Z,45.90
2023-04-05T13:30:44.170Z,46.10
2023-04-05T13:33:12.012Z,46.90
2023-04-05T13:35:39.870Z,48.20
2023-04-05T13:38:09.615Z,47.50
2023-04-05T13:40:37.415Z,47.40
2023-04-05T13:43:05.960Z,46.90
2023-04-05T13:45:34.541Z,47.10
2023-04-05T13:48:03.722Z,47.10
2023-04-05T13:50:31.859Z,47.10
2023-04-05T13:53:00.237Z,47.30
2023-04-05T13:55:28.082Z,46.50
2023-04-05T13:57:56.659Z,46.10
2023-04-05T14:00:24.895Z,48.10
2023-04-05T14:02:52.746Z,47.30
2023-04-05T14:05:20.593Z,44.70
2023-04-05T14:07:48.547Z,44.80
2023-04-05T14:10:18.193Z,43.70
2023-04-05T14:12:45.888Z,43.80
2023-04-05T14:15:14.130Z,42.80
2023-04-05T14:17:42.464Z,42.30
2023-04-05T14:20:10.744Z,41.40
2023-04-05T14:22:38.330Z,41.10
2023-04-05T14:25:08.427Z,42.40
2023-04-05T14:27:41.055Z,42.40
2023-04-05T14:30:09.911Z,42.50
2023-04-05T14:32:38.192Z,42.00
2023-04-05T14:35:23.035Z,41.60
2023-04-05T14:37:50.852Z,38.90
2023-04-05T14:40:18.843Z,39.40
2023-04-05T14:42:49.686Z,39.80
2023-04-05T14:45:20.392Z,40.30
2023-04-05T14:47:48.489Z,40.50
2023-04-05T14:50:19.963Z,41.60
2023-04-05T14:52:48.134Z,40.90
2023-04-05T14:55:19.572Z,39.40
2023-04-05T14:57:47.567Z,39.40
2023-04-05T15:00:18.191Z,40.00
2023-04-05T15:02:46.594Z,39.40
2023-04-05T15:05:14.610Z,40.10
2023-04-05T15:07:42.506Z,41.40
2023-04-05T15:10:11.439Z,41.10
2023-04-05T15:12:39.621Z,39.90
2023-04-05T15:15:08.518Z,39.00
2023-04-05T15:17:37.628Z,37.70
2023-04-05T15:20:07.872Z,38.30
2023-04-05T15:22:36.580Z,38.20
2023-04-05T15:25:06.288Z,38.50
2023-04-05T15:27:34.148Z,38.30
2023-04-05T15:30:02.150Z,36.80
2023-04-05T15:32:31.956Z,35.80
2023-04-05T15:35:03.930Z,36.00
2023-04-05T15:37:31.970Z,33.70
2023-04-05T15:40:03.149Z,32.30
2023-04-05T15:42:30.582Z,32.10
2023-04-05T15:45:01.718Z,32.80
2023-04-05T15:47:29.683Z,33.90
2023-04-05T15:49:57.549Z,36.00
2023-04-05T15:52:28.578Z,36.90
2023-04-05T15:54:57.829Z,37.00
2023-04-05T15:57:26.442Z,36.40
2023-04-05T15:59:54.843Z,35.30
2023-04-05T16:02:22.854Z,33.50
2023-04-05T16:04:50.579Z,32.00
2023-04-05T16:07:19.137Z,31.00
2023-04-05T16:09:47.289Z,30.00
2023-04-05T16:12:15.170Z,30.00
2023-04-05T16:14:44.402Z,29.80
2023-04-05T16:17:12.301Z,29.80
2023-04-05T16:19:41.475Z,29.40
2023-04-05T16:22:09.764Z,29.80
2023-04-05T16:24:39.793Z,29.50
2023-04-05T16:27:07.606Z,29.10
2023-04-05T16:29:35.373Z,29.40
2023-04-05T16:32:03.458Z,29.60
2023-04-05T16:34:31.330Z,29.80
2023-04-05T16:36:59.869Z,31.50
2023-04-05T16:39:28.289Z,32.50
2023-04-05T16:41:56.112Z,33.30
2023-04-05T16:44:24.543Z,33.30
2023-04-05T16:46:54.694Z,33.30
2023-04-05T16:49:22.345Z,34.50
2023-04-05T16:51:50.667Z,34.20
2023-04-05T16:54:20.721Z,33.10
2023-04-05T16:56:54.593Z,33.20
2023-04-05T16:59:22.575Z,33.20
2023-04-05T17:01:50.428Z,32.20
2023-04-05T17:04:18.232Z,31.50
2023-04-05T17:06:46.471Z,32.40
2023-04-05T17:09:14.048Z,32.20
2023-04-05T17:11:42.422Z,31.90
2023-04-05T17:14:16.135Z,35.00
2023-04-05T17:16:45.597Z,33.40
2023-04-05T17:19:13.310Z,33.70
2023-04-05T17:21:40.860Z,33.70
2023-04-05T17:24:09.458Z,33.50
2023-04-05T17:26:37.294Z,33.70
2023-04-05T17:29:05.167Z,34.50
2023-04-05T17:31:33.620Z,34.70
2023-04-05T17:34:02.489Z,34.70
2023-04-05T17:36:30.388Z,35.30
2023-04-05T17:38:59.128Z,39.40
2023-04-05T17:41:27.270Z,41.20
2023-04-05T17:43:55.771Z,37.80
2023-04-05T17:46:34.062Z,37.20
2023-04-05T17:48:54.990Z,37.80
2023-04-05T17:51:22.670Z,37.70
2023-04-05T17:53:50.514Z,37.60
2023-04-05T17:56:21.866Z,38.20
2023-04-05T17:58:51.115Z,37.50
2023-04-05T18:01:18.815Z,38.30
2023-04-05T18:03:46.854Z,37.10
2023-04-05T18:06:16.923Z,36.00
2023-04-05T18:08:44.869Z,37.00
2023-04-05T18:11:13.375Z,37.50
2023-04-05T18:13:44.133Z,36.80
2023-04-05T18:16:15.355Z,36.60
2023-04-05T18:18:43.052Z,36.20
2023-04-05T18:21:10.796Z,36.40
2023-04-05T18:23:38.584Z,36.50
2023-04-05T18:26:10.407Z,37.00
2023-04-05T18:28:38.341Z,36.90
2023-04-05T18:31:12.089Z,37.00
2023-04-05T18:33:41.023Z,37.70
2023-04-05T18:36:08.873Z,37.90
2023-04-05T18:38:36.961Z,39.80
2023-04-05T18:41:05.647Z,41.30
2023-04-05T18:43:38.434Z,41.90
2023-04-05T18:46:06.451Z,42.20
2023-04-05T18:48:36.252Z,42.60
2023-04-05T18:51:04.418Z,42.70
2023-04-05T18:53:32.371Z,43.90
2023-04-05T18:56:00.340Z,43.80
2023-04-05T18:58:28.287Z,43.90
2023-04-05T19:00:56.438Z,44.10
2023-04-05T19:03:27.677Z,44.20
2023-04-05T19:05:56.555Z,44.60
2023-04-05T19:08:25.912Z,44.30
2023-04-05T19:10:54.330Z,44.50
2023-04-05T19:13:22.290Z,44.80
2023-04-05T19:15:53.626Z,44.80
2023-04-05T19:18:23.396Z,44.90
2023-04-05T19:20:53.868Z,45.20
2023-04-05T19:23:22.219Z,45.90
2023-04-05T19:25:53.163Z,47.50
2023-04-05T19:28:21.512Z,45.90
2023-04-05T19:30:49.812Z,45.60
2023-04-05T19:33:19.580Z,46.60
2023-04-05T19:35:48.082Z,45.80
2023-04-05T19:38:16.061Z,45.50
2023-04-05T19:40:44.208Z,45.70
2023-04-05T19:43:12.954Z,45.90
2023-04-05T19:45:46.104Z,47.10
2023-04-05T19:50:58.455Z,46.10
2023-04-05T19:53:42.947Z,46.00
2023-04-05T19:56:15.023Z,46.40
2023-04-05T19:58:44.403Z,46.60
2023-04-05T20:04:13.625Z,46.40
2023-04-05T20:06:42.793Z,46.30
2023-04-05T20:09:29.392Z,46.40
2023-04-05T20:12:05.819Z,46.60
2023-04-05T20:14:43.863Z,46.60
2023-04-05T20:17:18.627Z,46.70
2023-04-05T20:20:07.917Z,46.60
2023-04-05T20:25:51.324Z,46.90
2023-04-05T20:28:43.585Z,47.20
2023-04-05T20:31:14.628Z,47.50
2023-04-05T20:33:56.118Z,47.70
2023-04-05T20:36:55.226Z,47.80
2023-04-05T20:39:24.095Z,47.70
2023-04-05T20:41:51.993Z,47.90
2023-04-05T20:44:20.343Z,48.00
2023-04-05T20:46:48.170Z,48.20
2023-04-05T20:49:17.200Z,48.20
2023-04-05T20:51:44.915Z,48.30
2023-04-05T20:54:13.726Z,48.20
2023-04-05T20:56:41.737Z,48.30
2023-04-05T20:59:10.057Z,48.30
2023-04-05T21:02:00.886Z,48.30
2023-04-05T21:04:30.180Z,48.20
2023-04-05T21:06:58.236Z,48.30
2023-04-05T21:09:26.122Z,48.50
2023-04-05T21:11:54.189Z,48.80
2023-04-05T21:14:22.801Z,48.70
2023-04-05T21:16:50.718Z,48.70
2023-04-05T21:19:19.137Z,48.70
2023-04-05T21:21:46.569Z,48.90
2023-04-05T21:24:14.814Z,49.10
2023-04-05T21:26:48.879Z,48.90
2023-04-05T21:29:23.724Z,49.00
2023-04-05T21:31:52.107Z,49.00
2023-04-05T21:34:20.783Z,49.30
2023-04-05T21:36:48.641Z,49.40
2023-04-05T21:39:17.012Z,49.50
2023-04-05T21:41:45.158Z,49.00
2023-04-05T21:44:13.021Z,49.70
2023-04-05T21:46:41.359Z,49.40
2023-04-05T21:49:12.720Z,49.30
2023-04-05T21:51:41.122Z,49.20
2023-04-05T21:54:10.047Z,49.40
2023-04-05T21:56:37.993Z,49.70
2023-04-05T21:59:06.590Z,49.60
2023-04-05T22:01:34.820Z,49.80
2023-04-05T22:04:02.564Z,50.00
2023-04-05T22:06:31.726Z,49.90
2023-04-05T22:09:03.102Z,50.00
2023-04-05T22:11:31.303Z,49.70
2023-04-05T22:14:00.249Z,49.70
2023-04-05T22:16:28.241Z,50.20
2023-04-05T22:18:56.166Z,50.10
2023-04-05T22:21:24.110Z,50.40
2023-04-05T22:26:41.914Z,50.70
2023-04-05T22:29:10.177Z,50.80
2023-04-05T22:31:38.413Z,50.80
2023-04-05T22:34:06.758Z,50.50
2023-04-05T22:36:34.829Z,50.70
2023-04-05T22:39:03.031Z,50.90
2023-04-05T22:41:34.223Z,51.00
2023-04-05T22:44:01.983Z,50.90
2023-04-05T22:46:30.025Z,51.10
2023-04-05T22:48:58.528Z,51.20
2023-04-05T22:51:27.141Z,51.10
2023-04-05T22:53:55.186Z,51.10
2023-04-05T22:56:24.381Z,50.70
2023-04-05T22:58:52.411Z,51.00
2023-04-05T23:01:20.095Z,51.40
2023-04-05T23:03:48.068Z,51.30
2023-04-05T23:06:16.486Z,51.00
2023-04-05T23:08:44.307Z,51.30
2023-04-05T23:11:12.422Z,51.30
2023-04-05T23:13:40.144Z,51.60
2023-04-05T23:16:08.485Z,51.80
2023-04-05T23:18:36.186Z,51.90
2023-04-05T23:21:04.522Z,52.10
2023-04-05T23:23:32.030Z,51.90
2023-04-05T23:26:20.195Z,51.60
2023-04-05T23:28:48.044Z,51.50
2023-04-05T23:31:16.109Z,51.90
2023-04-05T23:33:44.100Z,52.20
2023-04-05T23:36:12.139Z,52.20
2023-04-05T23:38:39.908Z,52.30
2023-04-05T23:41:11.389Z,52.40
2023-04-05T23:43:45.758Z,52.50
2023-04-05T23:46:13.876Z,52.60
2023-04-05T23:48:41.513Z,52.60
2023-04-05T23:51:09.644Z,52.70
2023-04-05T23:53:37.358Z,53.30
2023-04-05T23:56:06.600Z,52.60
2023-04-05T23:58:34.914Z,52.60
